DAUO/ELU METAR and TAF weather

Enter ICAO airport designator
Station Type Date Time Source
DAUO METAR 2024/06/16 00:00 UTC NOAA

DAUO 160000Z 16003KT CAVOK 33/08 Q1011


Station Type Date Time Source
DAUO Decoded METAR 2024/06/16 00:00 UTC NOAA

El Oued, Algeria (DAUO) 33-30N 006-07E 63M
Jun 15, 2024 - 08:00 PM EDT / 2024.06.16 0000 UTC
Wind: from the SSE (160 degrees) at 3 MPH (3 KT):0
Visibility: greater than 7 mile(s):0
Temperature: 91 F (33 C)
Dew Point: 46 F (8 C)
Relative Humidity: 21%
Pressure (altimeter): 29.85 in. Hg (1011 hPa)
ob: DAUO 160000Z 16003KT CAVOK 33/08 Q1011
cycle: 0

Station Type Date Time Source
DAUO TAF 2021/07/18 12:00 UTC NOAA